sensor_id;sensor_type;location;lat;lon;timestamp;temperature;humidity
8684;DHT22;4379;59.744;18.206;2023-07-13T00:02:09;15.10;99.90
8684;DHT22;4379;59.744;18.206;2023-07-13T00:04:37;15.00;99.90
8684;DHT22;4379;59.744;18.206;2023-07-13T00:07:04;14.90;99.90
8684;DHT22;4379;59.744;18.206;2023-07-13T00:09:31;14.90;99.90
8684;DHT22;4379;59.744;18.206;2023-07-13T00:11:59;14.80;99.90
8684;DHT22;4379;59.744;18.206;2023-07-13T00:14:28;14.80;99.90
8684;DHT22;4379;59.744;18.206;2023-07-13T00:16:55;14.70;99.90
8684;DHT22;4379;59.744;18.206;2023-07-13T00:19:23;14.60;99.90
8684;DHT22;4379;59.744;18.206;2023-07-13T00:21:50;14.50;99.90
8684;DHT22;4379;59.744;18.206;2023-07-13T00:24:18;14.40;99.90
8684;DHT22;4379;59.744;18.206;2023-07-13T00:26:51;14.40;99.90
8684;DHT22;4379;59.744;18.206;2023-07-13T00:29:18;14.30;99.90
8684;DHT22;4379;59.744;18.206;2023-07-13T00:31:48;14.30;99.90
8684;DHT22;4379;59.744;18.206;2023-07-13T00:34:15;14.30;99.90
8684;DHT22;4379;59.744;18.206;2023-07-13T00:36:43;14.20;99.90
8684;DHT22;4379;59.744;18.206;2023-07-13T00:39:10;14.20;99.90
8684;DHT22;4379;59.744;18.206;2023-07-13T00:41:37;14.10;99.90
8684;DHT22;4379;59.744;18.206;2023-07-13T00:44:05;14.10;99.90
8684;DHT22;4379;59.744;18.206;2023-07-13T00:46:33;14.10;99.90
8684;DHT22;4379;59.744;18.206;2023-07-13T00:49:04;14.00;99.90
8684;DHT22;4379;59.744;18.206;2023-07-13T00:51:40;14.00;99.90
8684;DHT22;4379;59.744;18.206;2023-07-13T00:54:13;13.90;99.90
8684;DHT22;4379;59.744;18.206;2023-07-13T00:56:43;13.90;99.90
8684;DHT22;4379;59.744;18.206;2023-07-13T00:59:13;13.80;99.90
8684;DHT22;4379;59.744;18.206;2023-07-13T01:01:41;13.80;99.90
8684;DHT22;4379;59.744;18.206;2023-07-13T01:04:10;13.90;99.90
8684;DHT22;4379;59.744;18.206;2023-07-13T01:06:38;13.90;99.90
8684;DHT22;4379;59.744;18.206;2023-07-13T01:09:07;13.90;99.90
8684;DHT22;4379;59.744;18.206;2023-07-13T01:11:35;13.90;99.90
8684;DHT22;4379;59.744;18.206;2023-07-13T01:14:03;13.80;99.90
8684;DHT22;4379;59.744;18.206;2023-07-13T01:16:32;13.80;99.90
8684;DHT22;4379;59.744;18.206;2023-07-13T01:19:01;13.80;99.90
8684;DHT22;4379;59.744;18.206;2023-07-13T01:21:32;13.80;99.90
8684;DHT22;4379;59.744;18.206;2023-07-13T01:24:00;13.80;99.90
8684;DHT22;4379;59.744;18.206;2023-07-13T01:26:29;13.80;99.90
8684;DHT22;4379;59.744;18.206;2023-07-13T01:28:56;13.70;99.90
8684;DHT22;4379;59.744;18.206;2023-07-13T01:31:23;13.70;99.90
8684;DHT22;4379;59.744;18.206;2023-07-13T01:33:50;13.80;99.90
8684;DHT22;4379;59.744;18.206;2023-07-13T01:36:18;13.70;99.90
8684;DHT22;4379;59.744;18.206;2023-07-13T01:38:48;13.70;99.90
8684;DHT22;4379;59.744;18.206;2023-07-13T01:41:15;13.70;99.90
8684;DHT22;4379;59.744;18.206;2023-07-13T01:43:42;13.60;99.90
8684;DHT22;4379;59.744;18.206;2023-07-13T01:46:10;13.60;99.90
8684;DHT22;4379;59.744;18.206;2023-07-13T01:48:50;13.60;99.90
8684;DHT22;4379;59.744;18.206;2023-07-13T01:51:19;13.60;99.90
8684;DHT22;4379;59.744;18.206;2023-07-13T01:53:46;13.50;99.90
8684;DHT22;4379;59.744;18.206;2023-07-13T01:56:13;13.50;99.90
8684;DHT22;4379;59.744;18.206;2023-07-13T01:58:41;13.50;99.90
8684;DHT22;4379;59.744;18.206;2023-07-13T02:01:08;13.40;99.90
8684;DHT22;4379;59.744;18.206;2023-07-13T02:03:35;13.40;99.90
8684;DHT22;4379;59.744;18.206;2023-07-13T02:06:03;13.40;99.90
8684;DHT22;4379;59.744;18.206;2023-07-13T02:08:31;13.40;99.90
8684;DHT22;4379;59.744;18.206;2023-07-13T02:10:59;13.30;99.90
8684;DHT22;4379;59.744;18.206;2023-07-13T02:13:26;13.30;99.90
8684;DHT22;4379;59.744;18.206;2023-07-13T02:15:54;13.30;99.90
8684;DHT22;4379;59.744;18.206;2023-07-13T02:18:21;13.40;99.90
8684;DHT22;4379;59.744;18.206;2023-07-13T02:20:48;13.30;99.90
8684;DHT22;4379;59.744;18.206;2023-07-13T02:23:16;13.30;99.90
8684;DHT22;4379;59.744;18.206;2023-07-13T02:25:43;13.30;99.90
8684;DHT22;4379;59.744;18.206;2023-07-13T02:28:10;13.30;99.90
8684;DHT22;4379;59.744;18.206;2023-07-13T02:30:38;13.40;99.90
8684;DHT22;4379;59.744;18.206;2023-07-13T02:33:07;13.40;99.90
8684;DHT22;4379;59.744;18.206;2023-07-13T02:35:34;13.40;99.90
8684;DHT22;4379;59.744;18.206;2023-07-13T02:38:01;13.50;99.90
8684;DHT22;4379;59.744;18.206;2023-07-13T02:40:28;13.50;99.90
8684;DHT22;4379;59.744;18.206;2023-07-13T02:42:56;13.60;99.90
8684;DHT22;4379;59.744;18.206;2023-07-13T02:45:23;13.60;99.90
8684;DHT22;4379;59.744;18.206;2023-07-13T02:47:50;13.60;99.90
8684;DHT22;4379;59.744;18.206;2023-07-13T02:50:18;13.60;99.90
8684;DHT22;4379;59.744;18.206;2023-07-13T02:52:45;13.70;99.90
8684;DHT22;4379;59.744;18.206;2023-07-13T02:55:13;13.70;99.90
8684;DHT22;4379;59.744;18.206;2023-07-13T02:57:40;13.60;99.90
8684;DHT22;4379;59.744;18.206;2023-07-13T03:00:08;13.60;99.90
8684;DHT22;4379;59.744;18.206;2023-07-13T03:02:35;13.60;99.90
8684;DHT22;4379;59.744;18.206;2023-07-13T03:05:05;13.60;99.90
8684;DHT22;4379;59.744;18.206;2023-07-13T03:07:32;13.60;99.90
8684;DHT22;4379;59.744;18.206;2023-07-13T03:09:59;13.60;99.90
8684;DHT22;4379;59.744;18.206;2023-07-13T03:12:26;13.60;99.90
8684;DHT22;4379;59.744;18.206;2023-07-13T03:14:54;13.60;99.90
8684;DHT22;4379;59.744;18.206;2023-07-13T03:17:21;13.60;99.90
8684;DHT22;4379;59.744;18.206;2023-07-13T03:19:49;13.70;99.90
8684;DHT22;4379;59.744;18.206;2023-07-13T03:22:18;13.70;99.90
8684;DHT22;4379;59.744;18.206;2023-07-13T03:24:46;13.80;99.90
8684;DHT22;4379;59.744;18.206;2023-07-13T03:27:13;13.80;99.90
8684;DHT22;4379;59.744;18.206;2023-07-13T03:29:40;13.80;99.90
8684;DHT22;4379;59.744;18.206;2023-07-13T03:32:08;13.80;99.90
8684;DHT22;4379;59.744;18.206;2023-07-13T03:34:35;13.90;99.90
8684;DHT22;4379;59.744;18.206;2023-07-13T03:37:03;14.00;99.90
8684;DHT22;4379;59.744;18.206;2023-07-13T03:39:30;14.00;99.90
8684;DHT22;4379;59.744;18.206;2023-07-13T03:41:58;14.00;99.90
8684;DHT22;4379;59.744;18.206;2023-07-13T03:44:25;14.00;99.90
8684;DHT22;4379;59.744;18.206;2023-07-13T03:46:53;14.00;99.90
8684;DHT22;4379;59.744;18.206;2023-07-13T03:49:20;14.00;99.90
8684;DHT22;4379;59.744;18.206;2023-07-13T03:51:48;14.10;99.90
8684;DHT22;4379;59.744;18.206;2023-07-13T03:54:19;14.20;99.90
8684;DHT22;4379;59.744;18.206;2023-07-13T03:56:46;14.20;99.90
8684;DHT22;4379;59.744;18.206;2023-07-13T03:59:14;14.30;99.90
8684;DHT22;4379;59.744;18.206;2023-07-13T04:01:41;14.40;99.90
8684;DHT22;4379;59.744;18.206;2023-07-13T04:04:08;14.60;99.90
8684;DHT22;4379;59.744;18.206;2023-07-13T04:06:37;14.60;99.90
8684;DHT22;4379;59.744;18.206;2023-07-13T04:09:04;14.70;99.90
8684;DHT22;4379;59.744;18.206;2023-07-13T04:11:35;14.70;99.90
8684;DHT22;4379;59.744;18.206;2023-07-13T04:14:06;14.80;99.90
8684;DHT22;4379;59.744;18.206;2023-07-13T04:16:33;14.80;99.90
8684;DHT22;4379;59.744;18.206;2023-07-13T04:19:00;14.90;99.90
8684;DHT22;4379;59.744;18.206;2023-07-13T04:21:30;15.10;99.90
8684;DHT22;4379;59.744;18.206;2023-07-13T04:23:58;15.30;99.90
8684;DHT22;4379;59.744;18.206;2023-07-13T04:26:25;15.60;99.90
8684;DHT22;4379;59.744;18.206;2023-07-13T04:28:52;16.10;99.90
8684;DHT22;4379;59.744;18.206;2023-07-13T04:31:20;16.70;99.90
8684;DHT22;4379;59.744;18.206;2023-07-13T04:33:48;17.00;99.90
8684;DHT22;4379;59.744;18.206;2023-07-13T04:36:16;16.60;99.90
8684;DHT22;4379;59.744;18.206;2023-07-13T04:38:44;16.90;99.90
8684;DHT22;4379;59.744;18.206;2023-07-13T04:41:12;17.60;99.90
8684;DHT22;4379;59.744;18.206;2023-07-13T04:43:40;18.20;99.90
8684;DHT22;4379;59.744;18.206;2023-07-13T04:46:10;18.80;99.90
8684;DHT22;4379;59.744;18.206;2023-07-13T04:48:38;18.60;99.90
8684;DHT22;4379;59.744;18.206;2023-07-13T04:51:06;18.20;99.90
8684;DHT22;4379;59.744;18.206;2023-07-13T04:53:34;17.80;99.90
8684;DHT22;4379;59.744;18.206;2023-07-13T04:56:02;17.30;99.90
8684;DHT22;4379;59.744;18.206;2023-07-13T04:58:30;17.40;99.90
8684;DHT22;4379;59.744;18.206;2023-07-13T05:01:02;17.20;99.90
8684;DHT22;4379;59.744;18.206;2023-07-13T05:03:30;17.00;99.90
8684;DHT22;4379;59.744;18.206;2023-07-13T05:05:59;16.80;99.90
8684;DHT22;4379;59.744;18.206;2023-07-13T05:08:26;16.70;99.90
8684;DHT22;4379;59.744;18.206;2023-07-13T05:10:54;16.80;99.90
8684;DHT22;4379;59.744;18.206;2023-07-13T05:13:22;16.80;99.90
8684;DHT22;4379;59.744;18.206;2023-07-13T05:16:01;17.50;99.90
8684;DHT22;4379;59.744;18.206;2023-07-13T05:18:30;17.70;99.90
8684;DHT22;4379;59.744;18.206;2023-07-13T05:21:07;18.40;99.90
8684;DHT22;4379;59.744;18.206;2023-07-13T05:23:36;18.00;99.90
8684;DHT22;4379;59.744;18.206;2023-07-13T05:26:04;18.20;99.90
8684;DHT22;4379;59.744;18.206;2023-07-13T05:28:36;18.20;99.90
8684;DHT22;4379;59.744;18.206;2023-07-13T05:31:04;17.90;99.90
8684;DHT22;4379;59.744;18.206;2023-07-13T05:33:32;18.10;99.90
8684;DHT22;4379;59.744;18.206;2023-07-13T05:35:59;18.20;99.90
8684;DHT22;4379;59.744;18.206;2023-07-13T05:38:27;18.70;99.90
8684;DHT22;4379;59.744;18.206;2023-07-13T05:40:55;19.00;99.90
8684;DHT22;4379;59.744;18.206;2023-07-13T05:43:23;19.40;99.90
8684;DHT22;4379;59.744;18.206;2023-07-13T05:45:55;19.60;99.90
8684;DHT22;4379;59.744;18.206;2023-07-13T05:48:23;19.40;99.90
8684;DHT22;4379;59.744;18.206;2023-07-13T05:50:51;19.50;99.90
8684;DHT22;4379;59.744;18.206;2023-07-13T05:53:18;20.60;99.90
8684;DHT22;4379;59.744;18.206;2023-07-13T05:55:46;21.00;99.90
8684;DHT22;4379;59.744;18.206;2023-07-13T05:58:17;22.10;99.90
8684;DHT22;4379;59.744;18.206;2023-07-13T06:00:46;24.30;99.90
8684;DHT22;4379;59.744;18.206;2023-07-13T06:03:14;24.70;99.90
8684;DHT22;4379;59.744;18.206;2023-07-13T06:05:42;23.80;99.90
8684;DHT22;4379;59.744;18.206;2023-07-13T06:08:09;23.50;99.90
8684;DHT22;4379;59.744;18.206;2023-07-13T06:10:36;24.30;99.90
8684;DHT22;4379;59.744;18.206;2023-07-13T06:13:03;24.50;99.90
8684;DHT22;4379;59.744;18.206;2023-07-13T06:15:31;24.70;99.90
8684;DHT22;4379;59.744;18.206;2023-07-13T06:17:58;24.10;99.90
8684;DHT22;4379;59.744;18.206;2023-07-13T06:20:26;24.20;99.90
8684;DHT22;4379;59.744;18.206;2023-07-13T06:22:53;24.10;99.90
8684;DHT22;4379;59.744;18.206;2023-07-13T06:25:21;24.20;99.90
8684;DHT22;4379;59.744;18.206;2023-07-13T06:27:48;23.60;99.90
8684;DHT22;4379;59.744;18.206;2023-07-13T06:30:15;26.00;99.90
8684;DHT22;4379;59.744;18.206;2023-07-13T06:32:42;28.20;99.90
8684;DHT22;4379;59.744;18.206;2023-07-13T06:35:10;30.00;99.90
8684;DHT22;4379;59.744;18.206;2023-07-13T06:37:39;32.90;99.90
8684;DHT22;4379;59.744;18.206;2023-07-13T06:40:07;34.50;99.90
8684;DHT22;4379;59.744;18.206;2023-07-13T06:42:37;35.20;99.90
8684;DHT22;4379;59.744;18.206;2023-07-13T06:45:05;30.70;99.90
8684;DHT22;4379;59.744;18.206;2023-07-13T06:47:36;30.30;99.90
8684;DHT22;4379;59.744;18.206;2023-07-13T06:50:04;29.40;99.90
8684;DHT22;4379;59.744;18.206;2023-07-13T06:52:31;29.40;99.90
8684;DHT22;4379;59.744;18.206;2023-07-13T06:54:59;28.90;99.90
8684;DHT22;4379;59.744;18.206;2023-07-13T06:57:26;27.90;99.90
8684;DHT22;4379;59.744;18.206;2023-07-13T06:59:54;27.60;99.90
8684;DHT22;4379;59.744;18.206;2023-07-13T07:02:21;25.30;99.90
8684;DHT22;4379;59.744;18.206;2023-07-13T07:04:49;25.80;99.90
8684;DHT22;4379;59.744;18.206;2023-07-13T07:07:17;27.60;99.90
8684;DHT22;4379;59.744;18.206;2023-07-13T07:09:44;28.00;99.90
8684;DHT22;4379;59.744;18.206;2023-07-13T07:12:11;30.60;99.90
8684;DHT22;4379;59.744;18.206;2023-07-13T07:14:41;31.90;99.90
8684;DHT22;4379;59.744;18.206;2023-07-13T07:17:08;33.80;99.90
8684;DHT22;4379;59.744;18.206;2023-07-13T07:19:35;35.70;99.90
8684;DHT22;4379;59.744;18.206;2023-07-13T07:22:03;33.30;99.90
8684;DHT22;4379;59.744;18.206;2023-07-13T07:24:30;35.30;99.90
8684;DHT22;4379;59.744;18.206;2023-07-13T07:26:58;33.60;99.90
8684;DHT22;4379;59.744;18.206;2023-07-13T07:29:28;31.80;99.90
8684;DHT22;4379;59.744;18.206;2023-07-13T07:31:59;31.80;99.90
8684;DHT22;4379;59.744;18.206;2023-07-13T07:34:47;32.20;99.90
8684;DHT22;4379;59.744;18.206;2023-07-13T07:37:15;31.50;99.90
8684;DHT22;4379;59.744;18.206;2023-07-13T07:39:45;32.00;99.90
8684;DHT22;4379;59.744;18.206;2023-07-13T07:42:32;31.50;99.90
8684;DHT22;4379;59.744;18.206;2023-07-13T07:45:00;29.80;99.90
8684;DHT22;4379;59.744;18.206;2023-07-13T07:47:28;29.30;99.90
8684;DHT22;4379;59.744;18.206;2023-07-13T07:49:56;29.20;99.90
8684;DHT22;4379;59.744;18.206;2023-07-13T07:52:23;28.80;99.90
8684;DHT22;4379;59.744;18.206;2023-07-13T07:54:50;29.20;99.90
8684;DHT22;4379;59.744;18.206;2023-07-13T07:57:20;31.00;99.90
8684;DHT22;4379;59.744;18.206;2023-07-13T07:59:50;28.70;99.90
8684;DHT22;4379;59.744;18.206;2023-07-13T08:02:20;28.50;99.90
8684;DHT22;4379;59.744;18.206;2023-07-13T08:04:51;28.50;99.90
8684;DHT22;4379;59.744;18.206;2023-07-13T08:07:21;28.60;99.90
8684;DHT22;4379;59.744;18.206;2023-07-13T08:09:52;31.10;99.90
8684;DHT22;4379;59.744;18.206;2023-07-13T08:12:20;31.00;99.90
8684;DHT22;4379;59.744;18.206;2023-07-13T08:14:50;32.00;99.90
8684;DHT22;4379;59.744;18.206;2023-07-13T08:17:25;34.50;99.90
8684;DHT22;4379;59.744;18.206;2023-07-13T08:19:53;34.80;99.90
8684;DHT22;4379;59.744;18.206;2023-07-13T08:22:20;33.80;99.90
8684;DHT22;4379;59.744;18.206;2023-07-13T08:24:47;33.50;99.90
8684;DHT22;4379;59.744;18.206;2023-07-13T08:27:23;34.10;99.90
8684;DHT22;4379;59.744;18.206;2023-07-13T08:29:51;33.40;99.90
8684;DHT22;4379;59.744;18.206;2023-07-13T08:32:20;33.10;99.90
8684;DHT22;4379;59.744;18.206;2023-07-13T08:34:48;32.30;99.90
8684;DHT22;4379;59.744;18.206;2023-07-13T08:37:16;31.30;99.90
8684;DHT22;4379;59.744;18.206;2023-07-13T08:39:43;30.90;99.90
8684;DHT22;4379;59.744;18.206;2023-07-13T08:45:24;29.90;99.90
8684;DHT22;4379;59.744;18.206;2023-07-13T08:48:08;28.90;99.90
8684;DHT22;4379;59.744;18.206;2023-07-13T08:50:46;29.10;99.90
8684;DHT22;4379;59.744;18.206;2023-07-13T08:53:33;28.10;99.90
8684;DHT22;4379;59.744;18.206;2023-07-13T08:56:04;28.20;99.90
8684;DHT22;4379;59.744;18.206;2023-07-13T08:58:34;28.40;99.90
8684;DHT22;4379;59.744;18.206;2023-07-13T09:01:31;28.20;99.90
8684;DHT22;4379;59.744;18.206;2023-07-13T09:04:16;27.00;99.90
8684;DHT22;4379;59.744;18.206;2023-07-13T09:07:12;26.00;99.90
8684;DHT22;4379;59.744;18.206;2023-07-13T09:15:35;24.70;99.90
8684;DHT22;4379;59.744;18.206;2023-07-13T09:18:29;24.20;99.90
8684;DHT22;4379;59.744;18.206;2023-07-13T09:21:23;24.10;99.90
8684;DHT22;4379;59.744;18.206;2023-07-13T09:23:58;24.60;99.90
8684;DHT22;4379;59.744;18.206;2023-07-13T09:26:28;24.90;99.90
8684;DHT22;4379;59.744;18.206;2023-07-13T09:29:06;25.70;99.90
8684;DHT22;4379;59.744;18.206;2023-07-13T09:31:42;25.70;99.90
8684;DHT22;4379;59.744;18.206;2023-07-13T09:34:14;25.40;99.90
8684;DHT22;4379;59.744;18.206;2023-07-13T09:36:42;25.80;99.90
8684;DHT22;4379;59.744;18.206;2023-07-13T09:39:23;25.40;99.90
8684;DHT22;4379;59.744;18.206;2023-07-13T09:44:31;24.60;99.90
8684;DHT22;4379;59.744;18.206;2023-07-13T09:47:00;24.00;99.90
8684;DHT22;4379;59.744;18.206;2023-07-13T09:49:34;24.30;99.90
8684;DHT22;4379;59.744;18.206;2023-07-13T09:52:05;24.80;99.90
8684;DHT22;4379;59.744;18.206;2023-07-13T09:54:34;24.60;99.90
8684;DHT22;4379;59.744;18.206;2023-07-13T09:57:12;24.70;99.90
8684;DHT22;4379;59.744;18.206;2023-07-13T09:59:43;25.10;99.90
8684;DHT22;4379;59.744;18.206;2023-07-13T10:02:34;25.20;99.90
8684;DHT22;4379;59.744;18.206;2023-07-13T10:05:06;25.10;99.90
8684;DHT22;4379;59.744;18.206;2023-07-13T10:07:39;24.50;99.90
8684;DHT22;4379;59.744;18.206;2023-07-13T10:10:18;23.90;99.90
8684;DHT22;4379;59.744;18.206;2023-07-13T10:12:47;23.60;99.90
8684;DHT22;4379;59.744;18.206;2023-07-13T10:15:18;23.20;99.90
8684;DHT22;4379;59.744;18.206;2023-07-13T10:17:51;23.50;99.90
8684;DHT22;4379;59.744;18.206;2023-07-13T10:20:20;23.80;99.90
8684;DHT22;4379;59.744;18.206;2023-07-13T10:25:27;24.30;99.90
8684;DHT22;4379;59.744;18.206;2023-07-13T10:30:49;23.30;99.90
8684;DHT22;4379;59.744;18.206;2023-07-13T10:33:20;23.30;99.90
8684;DHT22;4379;59.744;18.206;2023-07-13T10:35:51;23.00;99.90
8684;DHT22;4379;59.744;18.206;2023-07-13T10:38:23;22.50;99.90
8684;DHT22;4379;59.744;18.206;2023-07-13T10:43:28;22.50;99.90
8684;DHT22;4379;59.744;18.206;2023-07-13T10:45:59;22.40;99.90
8684;DHT22;4379;59.744;18.206;2023-07-13T10:48:28;22.10;99.90
8684;DHT22;4379;59.744;18.206;2023-07-13T10:50:57;21.70;99.90
8684;DHT22;4379;59.744;18.206;2023-07-13T10:53:33;22.10;99.90
8684;DHT22;4379;59.744;18.206;2023-07-13T10:56:04;22.20;99.90
8684;DHT22;4379;59.744;18.206;2023-07-13T10:58:39;23.00;99.90
8684;DHT22;4379;59.744;18.206;2023-07-13T11:01:16;23.20;99.90
8684;DHT22;4379;59.744;18.206;2023-07-13T11:06:15;23.80;99.90
8684;DHT22;4379;59.744;18.206;2023-07-13T11:11:33;24.00;99.90
8684;DHT22;4379;59.744;18.206;2023-07-13T11:14:05;23.50;99.90
8684;DHT22;4379;59.744;18.206;2023-07-13T11:16:51;23.20;99.90
8684;DHT22;4379;59.744;18.206;2023-07-13T11:24:59;22.80;99.90
8684;DHT22;4379;59.744;18.206;2023-07-13T11:27:45;22.50;99.90
8684;DHT22;4379;59.744;18.206;2023-07-13T11:33:13;21.70;99.90
8684;DHT22;4379;59.744;18.206;2023-07-13T11:38:33;21.40;99.90
8684;DHT22;4379;59.744;18.206;2023-07-13T11:41:22;21.50;99.90
8684;DHT22;4379;59.744;18.206;2023-07-13T11:43:54;22.20;99.90
8684;DHT22;4379;59.744;18.206;2023-07-13T11:46:22;22.70;99.90
8684;DHT22;4379;59.744;18.206;2023-07-13T11:48:50;22.90;99.90
8684;DHT22;4379;59.744;18.206;2023-07-13T11:53:52;22.90;99.90
8684;DHT22;4379;59.744;18.206;2023-07-13T11:56:24;23.10;99.90
8684;DHT22;4379;59.744;18.206;2023-07-13T11:58:54;23.40;99.90
8684;DHT22;4379;59.744;18.206;2023-07-13T12:01:30;23.40;99.90
8684;DHT22;4379;59.744;18.206;2023-07-13T12:04:02;23.50;99.90
8684;DHT22;4379;59.744;18.206;2023-07-13T12:06:35;23.30;99.90
8684;DHT22;4379;59.744;18.206;2023-07-13T12:09:12;22.90;99.90
8684;DHT22;4379;59.744;18.206;2023-07-13T12:11:43;23.20;99.90
8684;DHT22;4379;59.744;18.206;2023-07-13T12:14:15;23.30;99.90
8684;DHT22;4379;59.744;18.206;2023-07-13T12:16:44;23.70;99.90
8684;DHT22;4379;59.744;18.206;2023-07-13T12:19:28;23.90;99.90
8684;DHT22;4379;59.744;18.206;2023-07-13T12:21:57;23.70;99.90
8684;DHT22;4379;59.744;18.206;2023-07-13T12:24:26;23.70;99.90
8684;DHT22;4379;59.744;18.206;2023-07-13T12:27:01;23.90;99.90
8684;DHT22;4379;59.744;18.206;2023-07-13T12:29:31;24.00;99.90
8684;DHT22;4379;59.744;18.206;2023-07-13T12:31:59;23.70;99.90
8684;DHT22;4379;59.744;18.206;2023-07-13T12:34:27;23.40;99.90
8684;DHT22;4379;59.744;18.206;2023-07-13T12:36:55;23.50;99.90
8684;DHT22;4379;59.744;18.206;2023-07-13T12:39:28;23.90;99.90
8684;DHT22;4379;59.744;18.206;2023-07-13T12:42:28;23.90;99.90
8684;DHT22;4379;59.744;18.206;2023-07-13T12:45:02;23.60;99.90
8684;DHT22;4379;59.744;18.206;2023-07-13T12:47:42;23.60;99.90
8684;DHT22;4379;59.744;18.206;2023-07-13T12:50:16;23.60;99.90
8684;DHT22;4379;59.744;18.206;2023-07-13T12:52:44;23.90;99.90
8684;DHT22;4379;59.744;18.206;2023-07-13T12:55:19;23.80;99.90
8684;DHT22;4379;59.744;18.206;2023-07-13T12:57:56;23.30;99.90
8684;DHT22;4379;59.744;18.206;2023-07-13T13:00:27;23.40;99.90
8684;DHT22;4379;59.744;18.206;2023-07-13T13:02:56;22.80;99.90
8684;DHT22;4379;59.744;18.206;2023-07-13T13:05:44;22.70;99.90
8684;DHT22;4379;59.744;18.206;2023-07-13T13:08:12;23.00;99.90
8684;DHT22;4379;59.744;18.206;2023-07-13T13:10:40;23.00;99.90
8684;DHT22;4379;59.744;18.206;2023-07-13T13:13:07;23.20;99.90
8684;DHT22;4379;59.744;18.206;2023-07-13T13:15:35;23.60;99.90
8684;DHT22;4379;59.744;18.206;2023-07-13T13:18:19;23.50;99.90
8684;DHT22;4379;59.744;18.206;2023-07-13T13:20:48;23.60;99.90
8684;DHT22;4379;59.744;18.206;2023-07-13T13:23:18;23.10;99.90
8684;DHT22;4379;59.744;18.206;2023-07-13T13:25:50;22.90;99.90
8684;DHT22;4379;59.744;18.206;2023-07-13T13:28:21;23.10;99.90
8684;DHT22;4379;59.744;18.206;2023-07-13T13:30:50;23.10;99.90
8684;DHT22;4379;59.744;18.206;2023-07-13T13:33:20;23.30;99.90
8684;DHT22;4379;59.744;18.206;2023-07-13T13:35:49;23.20;99.90
8684;DHT22;4379;59.744;18.206;2023-07-13T13:38:21;22.90;99.90
8684;DHT22;4379;59.744;18.206;2023-07-13T13:40:50;22.70;99.90
8684;DHT22;4379;59.744;18.206;2023-07-13T13:43:18;22.70;99.90
8684;DHT22;4379;59.744;18.206;2023-07-13T13:45:46;22.90;99.90
8684;DHT22;4379;59.744;18.206;2023-07-13T13:48:18;23.30;99.90
8684;DHT22;4379;59.744;18.206;2023-07-13T13:50:46;23.40;99.90
8684;DHT22;4379;59.744;18.206;2023-07-13T13:53:14;23.70;99.90
8684;DHT22;4379;59.744;18.206;2023-07-13T13:55:42;23.70;99.90
8684;DHT22;4379;59.744;18.206;2023-07-13T13:58:10;23.90;99.90
8684;DHT22;4379;59.744;18.206;2023-07-13T14:00:37;23.40;99.90
8684;DHT22;4379;59.744;18.206;2023-07-13T14:03:15;23.10;99.90
8684;DHT22;4379;59.744;18.206;2023-07-13T14:05:44;22.90;99.90
8684;DHT22;4379;59.744;18.206;2023-07-13T14:08:17;22.60;99.90
8684;DHT22;4379;59.744;18.206;2023-07-13T14:10:47;22.70;99.90
8684;DHT22;4379;59.744;18.206;2023-07-13T14:13:30;22.90;99.90
8684;DHT22;4379;59.744;18.206;2023-07-13T14:15:58;22.80;99.90
8684;DHT22;4379;59.744;18.206;2023-07-13T14:18:26;22.70;99.90
8684;DHT22;4379;59.744;18.206;2023-07-13T14:20:54;22.90;99.90
8684;DHT22;4379;59.744;18.206;2023-07-13T14:23:21;23.20;99.90
8684;DHT22;4379;59.744;18.206;2023-07-13T14:25:49;23.40;99.90
8684;DHT22;4379;59.744;18.206;2023-07-13T14:28:26;23.00;99.90
8684;DHT22;4379;59.744;18.206;2023-07-13T14:30:54;23.10;99.90
8684;DHT22;4379;59.744;18.206;2023-07-13T14:33:22;23.20;99.90
8684;DHT22;4379;59.744;18.206;2023-07-13T14:35:50;23.30;99.90
8684;DHT22;4379;59.744;18.206;2023-07-13T14:38:20;23.00;99.90
8684;DHT22;4379;59.744;18.206;2023-07-13T14:40:48;23.10;99.90
8684;DHT22;4379;59.744;18.206;2023-07-13T14:43:16;22.80;99.90
8684;DHT22;4379;59.744;18.206;2023-07-13T14:45:47;22.60;99.90
8684;DHT22;4379;59.744;18.206;2023-07-13T14:48:22;22.00;99.90
8684;DHT22;4379;59.744;18.206;2023-07-13T14:50:54;21.80;99.90
8684;DHT22;4379;59.744;18.206;2023-07-13T14:53:22;21.70;99.90
8684;DHT22;4379;59.744;18.206;2023-07-13T14:55:50;21.70;99.90
8684;DHT22;4379;59.744;18.206;2023-07-13T14:58:18;21.80;99.90
8684;DHT22;4379;59.744;18.206;2023-07-13T15:00:46;21.80;99.90
8684;DHT22;4379;59.744;18.206;2023-07-13T15:03:21;21.60;99.90
8684;DHT22;4379;59.744;18.206;2023-07-13T15:05:51;21.60;99.90
8684;DHT22;4379;59.744;18.206;2023-07-13T15:08:20;21.40;99.90
8684;DHT22;4379;59.744;18.206;2023-07-13T15:11:08;21.30;99.90
8684;DHT22;4379;59.744;18.206;2023-07-13T15:13:39;21.20;99.90
8684;DHT22;4379;59.744;18.206;2023-07-13T15:16:21;21.30;99.90
8684;DHT22;4379;59.744;18.206;2023-07-13T15:18:49;21.30;99.90
8684;DHT22;4379;59.744;18.206;2023-07-13T15:21:22;21.60;99.90
8684;DHT22;4379;59.744;18.206;2023-07-13T15:23:51;21.90;99.90
8684;DHT22;4379;59.744;18.206;2023-07-13T15:26:19;22.00;99.90
8684;DHT22;4379;59.744;18.206;2023-07-13T15:28:47;22.10;99.90
8684;DHT22;4379;59.744;18.206;2023-07-13T15:31:24;22.10;99.90
8684;DHT22;4379;59.744;18.206;2023-07-13T15:33:53;22.20;99.90
8684;DHT22;4379;59.744;18.206;2023-07-13T15:36:22;22.40;99.90
8684;DHT22;4379;59.744;18.206;2023-07-13T15:38:51;22.50;99.90
8684;DHT22;4379;59.744;18.206;2023-07-13T15:43:54;22.20;99.90
8684;DHT22;4379;59.744;18.206;2023-07-13T15:46:23;22.40;99.90
8684;DHT22;4379;59.744;18.206;2023-07-13T15:48:52;22.50;99.90
8684;DHT22;4379;59.744;18.206;2023-07-13T15:51:24;22.20;99.90
8684;DHT22;4379;59.744;18.206;2023-07-13T15:54:01;21.90;99.90
8684;DHT22;4379;59.744;18.206;2023-07-13T15:56:35;21.50;99.90
8684;DHT22;4379;59.744;18.206;2023-07-13T15:59:03;21.30;99.90
8684;DHT22;4379;59.744;18.206;2023-07-13T16:01:31;21.30;99.90
8684;DHT22;4379;59.744;18.206;2023-07-13T16:04:00;21.30;99.90
8684;DHT22;4379;59.744;18.206;2023-07-13T16:06:38;21.50;99.90
8684;DHT22;4379;59.744;18.206;2023-07-13T16:09:18;21.40;99.90
8684;DHT22;4379;59.744;18.206;2023-07-13T16:11:46;21.50;99.90
8684;DHT22;4379;59.744;18.206;2023-07-13T16:14:14;21.40;99.90
8684;DHT22;4379;59.744;18.206;2023-07-13T16:16:44;21.30;99.90
8684;DHT22;4379;59.744;18.206;2023-07-13T16:19:13;21.40;99.90
8684;DHT22;4379;59.744;18.206;2023-07-13T16:21:46;21.40;99.90
8684;DHT22;4379;59.744;18.206;2023-07-13T16:24:23;21.30;99.90
8684;DHT22;4379;59.744;18.206;2023-07-13T16:26:53;21.40;99.90
8684;DHT22;4379;59.744;18.206;2023-07-13T16:29:25;21.40;99.90
8684;DHT22;4379;59.744;18.206;2023-07-13T16:34:35;21.20;99.90
8684;DHT22;4379;59.744;18.206;2023-07-13T16:37:25;21.10;99.90
8684;DHT22;4379;59.744;18.206;2023-07-13T16:39:56;21.10;99.90
8684;DHT22;4379;59.744;18.206;2023-07-13T16:42:28;20.80;99.90
8684;DHT22;4379;59.744;18.206;2023-07-13T16:44:55;20.80;99.90
8684;DHT22;4379;59.744;18.206;2023-07-13T16:47:24;20.70;99.90
8684;DHT22;4379;59.744;18.206;2023-07-13T16:49:51;20.60;99.90